createdAt,value
2023-02-04T00:01:58.498Z,20.42
2023-02-04T00:07:00.151Z,16.77
2023-02-04T00:12:01.797Z,20.75
2023-02-04T00:17:03.468Z,21.95
2023-02-04T00:22:05.256Z,19.70
2023-02-04T00:27:07.554Z,19.17
2023-02-04T00:32:09.344Z,18.33
2023-02-04T00:37:11.088Z,18.73
2023-02-04T00:42:13.062Z,19.75
2023-02-04T00:47:14.735Z,14.77
2023-02-04T00:52:16.334Z,20.33
2023-02-04T00:57:19.777Z,19.40
2023-02-04T01:02:21.418Z,21.70
2023-02-04T01:07:23.327Z,19.13
2023-02-04T01:12:27.300Z,19.90
2023-02-04T01:17:29.189Z,17.17
2023-02-04T01:22:30.889Z,16.48
2023-02-04T01:27:32.597Z,17.90
2023-02-04T01:32:34.431Z,17.88
2023-02-04T01:37:36.152Z,17.88
2023-02-04T01:42:38.729Z,16.23
2023-02-04T01:47:40.671Z,19.42
2023-02-04T01:52:44.245Z,23.58
2023-02-04T01:57:46.594Z,22.63
2023-02-04T02:02:51.151Z,18.23
2023-02-04T02:07:57.197Z,20.70
2023-02-04T02:12:59.408Z,23.05
2023-02-04T02:18:01.278Z,19.15
2023-02-04T02:23:18.045Z,23.67
2023-02-04T02:28:22.142Z,17.10
2023-02-04T02:33:25.450Z,14.60
2023-02-04T02:38:27.186Z,20.27
2023-02-04T02:43:30.170Z,22.25
2023-02-04T02:48:32.670Z,21.13
2023-02-04T02:53:34.626Z,22.98
2023-02-04T02:58:36.538Z,19.48
2023-02-04T03:03:56.605Z,15.18
2023-02-04T03:08:58.539Z,14.20
2023-02-04T03:14:03.789Z,15.75
2023-02-04T03:19:07.608Z,18.63
2023-02-04T03:24:09.683Z,18.90
2023-02-04T03:29:12.715Z,19.33
2023-02-04T03:34:14.426Z,12.35
2023-02-04T03:39:16.040Z,22.42
2023-02-04T03:44:18.764Z,24.73
2023-02-04T03:49:20.335Z,25.02
2023-02-04T03:54:21.930Z,19.83
2023-02-04T03:59:40.759Z,15.48
2023-02-04T04:04:42.457Z,21.73
2023-02-04T04:09:44.102Z,17.02
2023-02-04T04:14:45.776Z,22.23
2023-02-04T04:19:49.457Z,20.90
2023-02-04T04:24:51.140Z,17.83
2023-02-04T04:29:52.838Z,21.92
2023-02-04T04:34:55.592Z,23.52
2023-02-04T04:39:57.262Z,24.58
2023-02-04T04:44:58.880Z,21.55
2023-02-04T04:50:00.511Z,22.02
2023-02-04T04:55:02.128Z,23.00
2023-02-04T05:00:05.443Z,22.48
2023-02-04T05:05:07.226Z,21.15
2023-02-04T05:10:09.511Z,19.00
2023-02-04T05:15:11.399Z,21.70
2023-02-04T05:20:13.066Z,17.85
2023-02-04T05:25:16.721Z,18.17
2023-02-04T05:30:18.443Z,18.27
2023-02-04T05:35:20.256Z,20.73
2023-02-04T05:40:21.993Z,17.73
2023-02-04T05:45:23.718Z,18.15
2023-02-04T05:50:25.523Z,20.77
2023-02-04T05:55:42.956Z,15.45
2023-02-04T06:00:44.595Z,18.73
2023-02-04T06:05:46.229Z,23.33
2023-02-04T06:10:47.877Z,25.52
2023-02-04T06:15:49.545Z,17.05
2023-02-04T06:20:51.180Z,14.50
2023-02-04T06:25:52.854Z,17.85
2023-02-04T06:30:54.600Z,20.45
2023-02-04T06:35:56.350Z,23.20
2023-02-04T06:40:58.034Z,19.50
2023-02-04T06:45:59.666Z,18.05
2023-02-04T06:51:01.369Z,17.88
2023-02-04T06:56:03.141Z,18.63
2023-02-04T07:01:06.345Z,21.52
2023-02-04T07:06:08.185Z,20.05
2023-02-04T07:11:10.007Z,13.20
2023-02-04T07:16:11.718Z,24.55
2023-02-04T07:21:13.356Z,19.92
2023-02-04T07:26:14.951Z,21.52
2023-02-04T07:31:16.753Z,23.35
2023-02-04T07:36:18.479Z,22.35
2023-02-04T07:41:21.108Z,29.48
2023-02-04T07:46:22.754Z,20.95
2023-02-04T07:51:24.415Z,27.35
2023-02-04T07:56:26.070Z,23.50
2023-02-04T08:01:27.730Z,22.15
2023-02-04T08:06:29.412Z,24.58
2023-02-04T08:11:31.276Z,28.75
2023-02-04T08:16:32.878Z,27.02
2023-02-04T08:21:34.525Z,19.20
2023-02-04T08:26:36.305Z,28.42
2023-02-04T08:31:40.794Z,27.98
2023-02-04T08:36:44.753Z,20.17
2023-02-04T08:41:46.417Z,24.48
2023-02-04T08:46:48.143Z,25.13
2023-02-04T08:51:49.819Z,21.42
2023-02-04T08:56:51.502Z,20.90
2023-02-04T09:01:53.292Z,22.98
2023-02-04T09:06:55.111Z,19.48
2023-02-04T09:11:56.789Z,23.92
2023-02-04T09:16:58.462Z,24.35
2023-02-04T09:22:00.212Z,18.13
2023-02-04T09:27:01.821Z,22.33
2023-02-04T09:32:03.577Z,19.50
2023-02-04T09:37:05.254Z,20.63
2023-02-04T09:42:10.521Z,20.98
2023-02-04T09:47:15.495Z,18.75
2023-02-04T09:52:18.496Z,22.70
2023-02-04T09:57:21.301Z,17.23
2023-02-04T10:02:26.823Z,15.52
2023-02-04T10:07:29.925Z,16.92
2023-02-04T10:12:32.328Z,15.38
2023-02-04T10:17:33.969Z,14.68
2023-02-04T10:22:36.833Z,18.40
2023-02-04T10:27:48.476Z,19.77
2023-02-04T10:32:50.686Z,20.30
2023-02-04T10:38:06.891Z,20.30
2023-02-04T10:43:17.079Z,15.02
2023-02-04T10:48:19.949Z,20.25
2023-02-04T10:53:41.812Z,20.13
2023-02-04T10:58:43.966Z,17.70
2023-02-04T11:03:48.167Z,19.73
2023-02-04T11:08:53.522Z,24.00
2023-02-04T11:13:55.757Z,24.88
2023-02-04T11:19:06.332Z,21.00
2023-02-04T11:24:16.570Z,20.25
2023-02-04T11:29:34.867Z,20.55
2023-02-04T11:34:49.053Z,15.13
2023-02-04T11:39:51.016Z,19.85
2023-02-04T11:45:13.392Z,13.45
2023-02-04T11:50:25.005Z,15.93
2023-02-04T11:55:28.738Z,11.15
2023-02-04T12:00:32.770Z,11.57
2023-02-04T12:05:45.019Z,19.73
2023-02-04T12:10:51.765Z,13.90
2023-02-04T12:16:05.370Z,14.02
2023-02-04T12:21:14.490Z,13.27
2023-02-04T12:26:16.150Z,12.27
2023-02-04T12:31:25.933Z,16.02
2023-02-04T12:36:29.692Z,28.17
2023-02-04T12:41:31.402Z,16.70
2023-02-04T12:46:33.392Z,15.15
2023-02-04T12:51:35.050Z,16.33
2023-02-04T12:56:36.689Z,17.45
2023-02-04T13:01:38.347Z,20.33
2023-02-04T13:06:40.038Z,23.58
2023-02-04T13:11:41.812Z,15.68
2023-02-04T13:16:43.425Z,22.27
2023-02-04T13:21:45.152Z,15.95
2023-02-04T13:26:46.761Z,17.60
2023-02-04T13:31:49.569Z,14.07
2023-02-04T13:36:51.410Z,15.95
2023-02-04T13:41:53.178Z,17.15
2023-02-04T13:46:54.814Z,14.63
2023-02-04T13:51:56.427Z,19.65
2023-02-04T13:56:58.014Z,13.55
2023-02-04T14:01:59.817Z,15.60
2023-02-04T14:07:01.504Z,15.20
2023-02-04T14:12:03.170Z,15.05
2023-02-04T14:17:04.887Z,14.07
2023-02-04T14:22:07.760Z,15.40
2023-02-04T14:27:10.530Z,10.35
2023-02-04T14:32:12.170Z,13.65
2023-02-04T14:37:13.945Z,8.57
2023-02-04T14:42:15.552Z,9.00
2023-02-04T14:47:17.116Z,16.08
2023-02-04T14:52:18.756Z,11.15
2023-02-04T14:57:21.586Z,11.50
2023-02-04T15:02:24.728Z,7.97
2023-02-04T15:07:26.644Z,7.97
2023-02-04T15:12:28.248Z,9.38
2023-02-04T15:17:30.080Z,6.70
2023-02-04T15:22:31.902Z,6.18
2023-02-04T15:27:33.717Z,5.15
2023-02-04T15:32:35.522Z,3.85
2023-02-04T15:37:37.114Z,4.63
2023-02-04T15:42:38.685Z,7.45
2023-02-04T15:47:40.285Z,9.63
2023-02-04T15:52:42.036Z,9.07
2023-02-04T15:57:43.607Z,7.03
2023-02-04T16:02:46.047Z,11.30
2023-02-04T16:07:48.101Z,6.82
2023-02-04T16:12:51.315Z,10.73
2023-02-04T16:17:55.516Z,9.65
2023-02-04T16:22:57.178Z,13.55
2023-02-04T16:27:58.780Z,7.78
2023-02-04T16:33:00.403Z,11.65
2023-02-04T16:38:01.973Z,11.50
2023-02-04T16:43:05.020Z,12.98
2023-02-04T16:48:06.619Z,14.05
2023-02-04T16:53:10.562Z,13.75
2023-02-04T16:58:13.071Z,14.45
2023-02-04T17:03:14.995Z,12.73
2023-02-04T17:08:17.441Z,11.18
2023-02-04T17:13:19.836Z,15.77
2023-02-04T17:18:21.523Z,14.50
2023-02-04T17:23:23.296Z,19.77
2023-02-04T17:28:26.197Z,19.90
2023-02-04T17:33:28.939Z,17.48
2023-02-04T17:38:31.644Z,11.88
2023-02-04T17:43:34.557Z,17.73
2023-02-04T17:48:36.611Z,16.52
2023-02-04T17:53:40.513Z,18.67
2023-02-04T17:58:42.770Z,18.50
2023-02-04T18:03:46.460Z,20.65
2023-02-04T18:08:49.996Z,17.02
2023-02-04T18:13:52.836Z,22.85
2023-02-04T18:18:57.804Z,15.70
2023-02-04T18:24:07.078Z,17.10
2023-02-04T18:29:36.346Z,17.00
2023-02-04T18:34:44.954Z,23.23
2023-02-04T18:39:46.710Z,27.17
2023-02-04T18:44:48.845Z,21.70
2023-02-04T18:49:50.532Z,19.55
2023-02-04T18:54:54.531Z,29.13
2023-02-04T19:00:08.673Z,26.83
2023-02-04T19:05:32.094Z,25.67
2023-02-04T19:10:37.380Z,24.63
2023-02-04T19:15:39.774Z,28.95
2023-02-04T19:20:41.562Z,30.23
2023-02-04T19:25:48.442Z,25.48
2023-02-04T19:30:50.950Z,25.73
2023-02-04T19:35:52.815Z,20.77
2023-02-04T19:40:54.617Z,20.63
2023-02-04T19:45:56.291Z,20.85
2023-02-04T19:50:58.700Z,14.75
2023-02-04T19:56:00.355Z,17.30
2023-02-04T20:01:04.937Z,14.13
2023-02-04T20:06:09.407Z,12.93
2023-02-04T20:11:29.744Z,14.38
2023-02-04T20:16:49.896Z,16.42
2023-02-04T20:22:17.326Z,15.05
2023-02-04T20:27:25.530Z,19.05
2023-02-04T20:32:30.063Z,13.18
2023-02-04T20:37:31.753Z,17.63
2023-02-04T20:42:40.778Z,17.70
2023-02-04T20:47:42.452Z,13.63
2023-02-04T20:52:45.558Z,18.33
2023-02-04T20:57:48.179Z,17.52
2023-02-04T21:02:49.834Z,20.77
2023-02-04T21:07:57.828Z,18.52
2023-02-04T21:13:01.356Z,17.77
2023-02-04T21:18:03.128Z,19.40
2023-02-04T21:23:05.212Z,17.02
2023-02-04T21:28:15.318Z,19.65
2023-02-04T21:33:17.308Z,18.13
2023-02-04T21:38:19.036Z,17.25
2023-02-04T21:43:20.697Z,18.35
2023-02-04T21:48:23.243Z,14.85
2023-02-04T21:53:25.019Z,18.33
2023-02-04T21:58:26.847Z,16.83
2023-02-04T22:03:28.604Z,17.20
2023-02-04T22:08:30.294Z,18.52
2023-02-04T22:13:31.876Z,19.70
2023-02-04T22:18:33.550Z,15.73
2023-02-04T22:23:35.157Z,17.70
2023-02-04T22:28:36.789Z,18.90
2023-02-04T22:33:38.452Z,21.83
2023-02-04T22:38:40.339Z,20.85
2023-02-04T22:43:42.041Z,22.95
2023-02-04T22:48:43.679Z,20.88
2023-02-04T22:53:45.295Z,23.75
2023-02-04T22:58:46.972Z,19.48
2023-02-04T23:03:49.239Z,21.17
2023-02-04T23:08:53.276Z,22.23
2023-02-04T23:13:55.822Z,20.10
2023-02-04T23:18:57.649Z,20.50
2023-02-04T23:24:00.622Z,20.17
2023-02-04T23:29:02.847Z,19.80
2023-02-04T23:34:04.503Z,20.38
2023-02-04T23:39:06.239Z,20.85
2023-02-04T23:44:07.863Z,19.27
2023-02-04T23:49:10.007Z,20.98
2023-02-04T23:54:12.088Z,21.95
2023-02-04T23:59:13.739Z,17.83
